Parks Crossroads, North Carolina
Current Conditions -  °F | °C
As of 5:35 PM on Sunday 23 Nov 2014 (Local Time) from K5W8 Reporting Station
Light Rain Light Rain  
Wind Chill: 55°   Ceiling: 400
Heat Index: 55°   Visibility: 7mi
Dew Point: 55°   Wind: 8mph
Humidity: 100%   Direction: 100°E
Pressure: 29.93"   Gusts: NA
Location:  35.6832°N, 79.6174°W
Report Text: K5W8 232235Z AUTO 10007KT 7SM -RA OVC004 13/13 A2993 RMK AO2 T01250125
Loading
Personal Weather Stations






























Interactive Weather Map New forecast layout! Learn more

10-Day Weather Forecast

Advertisements
Track Severe Weather on mobile